<?xml version="1.0" encoding="utf-8"?>
<gpx xmlns:xsi="http://www.w3.org/2001/XMLSchema-instance" xmlns:xsd="http://www.w3.org/2001/XMLSchema" version="1.1" creator="Shapelink.com" xmlns="http://www.topografix.com/GPX/1/1" xmlns:gpxtpx="http://www.garmin.com/xmlschemas/TrackPointExtension/v1">
  <metadata>
    <name>Ejecutar 3.40 km, 2020-02-13</name>
    <desc></desc>
    <author><name>Per Rooth</name></author> 
    <time>2020-02-13T18:27:40Z</time>
  </metadata>
  <trk>
    <name>Ejecutar 3.40 km, 2020-02-13</name>
    <trkseg>
      <trkpt lat="56.904635448638" lon="14.81665613154">
        <ele>183.8</ele>
        <time>2020-02-13T18:27:40Z</time>
      </trkpt>
      <trkpt lat="56.904829321985" lon="14.816675493729">
        <ele>183.8</ele>
        <time>2020-02-13T18:27:47Z</time>
      </trkpt>
      <trkpt lat="56.905013639966" lon="14.816576419671">
        <ele>183.8</ele>
        <time>2020-02-13T18:27:53Z</time>
      </trkpt>
      <trkpt lat="56.905212458634" lon="14.816436777217">
        <ele>184.2</ele>
        <time>2020-02-13T18:27:59Z</time>
      </trkpt>
      <trkpt lat="56.905427789645" lon="14.816404255445">
        <ele>184.2</ele>
        <time>2020-02-13T18:28:05Z</time>
      </trkpt>
      <trkpt lat="56.905628452331" lon="14.816419426684">
        <ele>184</ele>
        <time>2020-02-13T18:28:11Z</time>
      </trkpt>
      <trkpt lat="56.905663488673" lon="14.816425964566">
        <ele>183.6</ele>
        <time>2020-02-13T18:28:12Z</time>
      </trkpt>
      <trkpt lat="56.905807405896" lon="14.816422192711">
        <ele>183</ele>
        <time>2020-02-13T18:28:16Z</time>
      </trkpt>
      <trkpt lat="56.905906982868" lon="14.816153468997">
        <ele>183</ele>
        <time>2020-02-13T18:28:22Z</time>
      </trkpt>
      <trkpt lat="56.905974876258" lon="14.815798998446">
        <ele>183.2</ele>
        <time>2020-02-13T18:28:30Z</time>
      </trkpt>
      <trkpt lat="56.905980911226" lon="14.815466991387">
        <ele>184.6</ele>
        <time>2020-02-13T18:28:36Z</time>
      </trkpt>
      <trkpt lat="56.906029610065" lon="14.81513984583">
        <ele>185.2</ele>
        <time>2020-02-13T18:28:46Z</time>
      </trkpt>
      <trkpt lat="56.906026508762" lon="14.815029623845">
        <ele>185.6</ele>
        <time>2020-02-13T18:28:49Z</time>
      </trkpt>
      <trkpt lat="56.906036315585" lon="14.814788476582">
        <ele>186.6</ele>
        <time>2020-02-13T18:28:53Z</time>
      </trkpt>
      <trkpt lat="56.906055007222" lon="14.814553280468">
        <ele>187.8</ele>
        <time>2020-02-13T18:28:59Z</time>
      </trkpt>
      <trkpt lat="56.906078476542" lon="14.814440292456">
        <ele>189.2</ele>
        <time>2020-02-13T18:29:03Z</time>
      </trkpt>
      <trkpt lat="56.906112004142" lon="14.814323951684">
        <ele>190.2</ele>
        <time>2020-02-13T18:29:06Z</time>
      </trkpt>
      <trkpt lat="56.906172353822" lon="14.814186069429">
        <ele>191.4</ele>
        <time>2020-02-13T18:29:10Z</time>
      </trkpt>
      <trkpt lat="56.906190374907" lon="14.814160420815">
        <ele>191.6</ele>
        <time>2020-02-13T18:29:11Z</time>
      </trkpt>
      <trkpt lat="56.906322808927" lon="14.81409881385">
        <ele>192.4</ele>
        <time>2020-02-13T18:29:16Z</time>
      </trkpt>
      <trkpt lat="56.906429259057" lon="14.813964368174">
        <ele>192.6</ele>
        <time>2020-02-13T18:29:21Z</time>
      </trkpt>
      <trkpt lat="56.906535709187" lon="14.813866802858">
        <ele>192</ele>
        <time>2020-02-13T18:29:28Z</time>
      </trkpt>
      <trkpt lat="56.906545180734" lon="14.813695225365">
        <ele>192.2</ele>
        <time>2020-02-13T18:29:42Z</time>
      </trkpt>
      <trkpt lat="56.906612235934" lon="14.813386017074">
        <ele>193</ele>
        <time>2020-02-13T18:29:51Z</time>
      </trkpt>
      <trkpt lat="56.906672753252" lon="14.81327822584">
        <ele>193.6</ele>
        <time>2020-02-13T18:29:55Z</time>
      </trkpt>
      <trkpt lat="56.906816335199" lon="14.813022494071">
        <ele>193.6</ele>
        <time>2020-02-13T18:30:04Z</time>
      </trkpt>
      <trkpt lat="56.906888838634" lon="14.812938088338">
        <ele>193.6</ele>
        <time>2020-02-13T18:30:09Z</time>
      </trkpt>
      <trkpt lat="56.907070977321" lon="14.812789225794">
        <ele>193.6</ele>
        <time>2020-02-13T18:30:19Z</time>
      </trkpt>
      <trkpt lat="56.907233334724" lon="14.812577163724">
        <ele>193.6</ele>
        <time>2020-02-13T18:30:27Z</time>
      </trkpt>
      <trkpt lat="56.907320255027" lon="14.812478257304">
        <ele>192.8</ele>
        <time>2020-02-13T18:30:31Z</time>
      </trkpt>
      <trkpt lat="56.907394937756" lon="14.812392342829">
        <ele>192.4</ele>
        <time>2020-02-13T18:30:35Z</time>
      </trkpt>
      <trkpt lat="56.907458556377" lon="14.812345990922">
        <ele>192</ele>
        <time>2020-02-13T18:30:38Z</time>
      </trkpt>
      <trkpt lat="56.907519073695" lon="14.812292430581">
        <ele>191.6</ele>
        <time>2020-02-13T18:30:41Z</time>
      </trkpt>
      <trkpt lat="56.907614794993" lon="14.81217349142">
        <ele>191.4</ele>
        <time>2020-02-13T18:30:46Z</time>
      </trkpt>
      <trkpt lat="56.907720490752" lon="14.812077434846">
        <ele>190.4</ele>
        <time>2020-02-13T18:30:51Z</time>
      </trkpt>
      <trkpt lat="56.907775308378" lon="14.811997806796">
        <ele>190.4</ele>
        <time>2020-02-13T18:30:54Z</time>
      </trkpt>
      <trkpt lat="56.907797017499" lon="14.811970817078">
        <ele>190.2</ele>
        <time>2020-02-13T18:30:55Z</time>
      </trkpt>
      <trkpt lat="56.907882009965" lon="14.811797479386">
        <ele>189.2</ele>
        <time>2020-02-13T18:31:01Z</time>
      </trkpt>
      <trkpt lat="56.907946047681" lon="14.811621710943">
        <ele>188</ele>
        <time>2020-02-13T18:31:09Z</time>
      </trkpt>
      <trkpt lat="56.907987538086" lon="14.811472596942">
        <ele>187.6</ele>
        <time>2020-02-13T18:31:14Z</time>
      </trkpt>
      <trkpt lat="56.908015785089" lon="14.811388191209">
        <ele>187.2</ele>
        <time>2020-02-13T18:31:17Z</time>
      </trkpt>
      <trkpt lat="56.908034476726" lon="14.811359441292">
        <ele>187</ele>
        <time>2020-02-13T18:31:19Z</time>
      </trkpt>
      <trkpt lat="56.908040344056" lon="14.81132943409">
        <ele>187</ele>
        <time>2020-02-13T18:31:20Z</time>
      </trkpt>
      <trkpt lat="56.908046379024" lon="14.81126489346">
        <ele>186.6</ele>
        <time>2020-02-13T18:31:22Z</time>
      </trkpt>
      <trkpt lat="56.908051324345" lon="14.811219295924">
        <ele>185.8</ele>
        <time>2020-02-13T18:31:29Z</time>
      </trkpt>
      <trkpt lat="56.908145704539" lon="14.811304958942">
        <ele>185.6</ele>
        <time>2020-02-13T18:31:38Z</time>
      </trkpt>
      <trkpt lat="56.908170682601" lon="14.81135877074">
        <ele>185.8</ele>
        <time>2020-02-13T18:31:40Z</time>
      </trkpt>
      <trkpt lat="56.908213095015" lon="14.81152054141">
        <ele>187</ele>
        <time>2020-02-13T18:31:45Z</time>
      </trkpt>
      <trkpt lat="56.908263302596" lon="14.811693627645">
        <ele>188.4</ele>
        <time>2020-02-13T18:31:50Z</time>
      </trkpt>
      <trkpt lat="56.908324574285" lon="14.811813824091">
        <ele>189.4</ele>
        <time>2020-02-13T18:31:54Z</time>
      </trkpt>
      <trkpt lat="56.908338655877" lon="14.811981042996">
        <ele>190.6</ele>
        <time>2020-02-13T18:32:00Z</time>
      </trkpt>
      <trkpt lat="56.908388863458" lon="14.812240714258">
        <ele>191.8</ele>
        <time>2020-02-13T18:32:05Z</time>
      </trkpt>
      <trkpt lat="56.908381235929" lon="14.812350265691">
        <ele>192.4</ele>
        <time>2020-02-13T18:32:07Z</time>
      </trkpt>
      <trkpt lat="56.908368243984" lon="14.812487058299">
        <ele>192.8</ele>
        <time>2020-02-13T18:32:10Z</time>
      </trkpt>
      <trkpt lat="56.908357431333" lon="14.812750417597">
        <ele>194</ele>
        <time>2020-02-13T18:32:15Z</time>
      </trkpt>
      <trkpt lat="56.908356509324" lon="14.812857119184">
        <ele>194.4</ele>
        <time>2020-02-13T18:32:19Z</time>
      </trkpt>
      <trkpt lat="56.908356593143" lon="14.812917468864">
        <ele>194.4</ele>
        <time>2020-02-13T18:32:21Z</time>
      </trkpt>
      <trkpt lat="56.908346199587" lon="14.813104217596">
        <ele>195</ele>
        <time>2020-02-13T18:32:25Z</time>
      </trkpt>
      <trkpt lat="56.90835516822" lon="14.813331618543">
        <ele>196</ele>
        <time>2020-02-13T18:32:31Z</time>
      </trkpt>
      <trkpt lat="56.908389450191" lon="14.813649711648">
        <ele>195.6</ele>
        <time>2020-02-13T18:32:38Z</time>
      </trkpt>
      <trkpt lat="56.908407638914" lon="14.813764208402">
        <ele>195</ele>
        <time>2020-02-13T18:32:41Z</time>
      </trkpt>
      <trkpt lat="56.908401771584" lon="14.813776445976">
        <ele>194.6</ele>
        <time>2020-02-13T18:32:42Z</time>
      </trkpt>
      <trkpt lat="56.908387941449" lon="14.813781810392">
        <ele>194</ele>
        <time>2020-02-13T18:32:44Z</time>
      </trkpt>
      <trkpt lat="56.908380984472" lon="14.813786839532">
        <ele>193.6</ele>
        <time>2020-02-13T18:32:45Z</time>
      </trkpt>
      <trkpt lat="56.908353072745" lon="14.813840902787">
        <ele>193.2</ele>
        <time>2020-02-13T18:32:47Z</time>
      </trkpt>
      <trkpt lat="56.908320634792" lon="14.813906197788">
        <ele>193.2</ele>
        <time>2020-02-13T18:32:49Z</time>
      </trkpt>
      <trkpt lat="56.908208568789" lon="14.81411306308">
        <ele>192.6</ele>
        <time>2020-02-13T18:32:57Z</time>
      </trkpt>
      <trkpt lat="56.90819675031" lon="14.814128737233">
        <ele>192.4</ele>
        <time>2020-02-13T18:32:58Z</time>
      </trkpt>
      <trkpt lat="56.908168503307" lon="14.814199983383">
        <ele>191.6</ele>
        <time>2020-02-13T18:33:01Z</time>
      </trkpt>
      <trkpt lat="56.908161797787" lon="14.814218339744">
        <ele>191.2</ele>
        <time>2020-02-13T18:33:02Z</time>
      </trkpt>
      <trkpt lat="56.908149560213" lon="14.814311211196">
        <ele>189.8</ele>
        <time>2020-02-13T18:33:05Z</time>
      </trkpt>
      <trkpt lat="56.908134640431" lon="14.814433670755">
        <ele>188.4</ele>
        <time>2020-02-13T18:33:08Z</time>
      </trkpt>
      <trkpt lat="56.908109075636" lon="14.814525536379">
        <ele>187.6</ele>
        <time>2020-02-13T18:33:10Z</time>
      </trkpt>
      <trkpt lat="56.908086276868" lon="14.814553448106">
        <ele>187.4</ele>
        <time>2020-02-13T18:33:11Z</time>
      </trkpt>
      <trkpt lat="56.908028190301" lon="14.814558644884">
        <ele>187</ele>
        <time>2020-02-13T18:33:13Z</time>
      </trkpt>
      <trkpt lat="56.907948059337" lon="14.814538612143">
        <ele>186.4</ele>
        <time>2020-02-13T18:33:16Z</time>
      </trkpt>
      <trkpt lat="56.907767261754" lon="14.814612540501">
        <ele>186.4</ele>
        <time>2020-02-13T18:33:22Z</time>
      </trkpt>
      <trkpt lat="56.907587218542" lon="14.814666687575">
        <ele>186.2</ele>
        <time>2020-02-13T18:33:29Z</time>
      </trkpt>
      <trkpt lat="56.90745662854" lon="14.814672554905">
        <ele>185.2</ele>
        <time>2020-02-13T18:33:34Z</time>
      </trkpt>
      <trkpt lat="56.907257558415" lon="14.814733239861">
        <ele>185.6</ele>
        <time>2020-02-13T18:33:41Z</time>
      </trkpt>
      <trkpt lat="56.907149599543" lon="14.814752769688">
        <ele>186.4</ele>
        <time>2020-02-13T18:33:45Z</time>
      </trkpt>
      <trkpt lat="56.907100565428" lon="14.814756960638">
        <ele>186.2</ele>
        <time>2020-02-13T18:33:47Z</time>
      </trkpt>
      <trkpt lat="56.907040970119" lon="14.814733826594">
        <ele>185.6</ele>
        <time>2020-02-13T18:33:49Z</time>
      </trkpt>
      <trkpt lat="56.907022529939" lon="14.814707591247">
        <ele>185.2</ele>
        <time>2020-02-13T18:33:50Z</time>
      </trkpt>
      <trkpt lat="56.906986823045" lon="14.814665765566">
        <ele>185.4</ele>
        <time>2020-02-13T18:33:52Z</time>
      </trkpt>
      <trkpt lat="56.906951535246" lon="14.814638692029">
        <ele>186.2</ele>
        <time>2020-02-13T18:33:55Z</time>
      </trkpt>
      <trkpt lat="56.906945667916" lon="14.814641793332">
        <ele>186.4</ele>
        <time>2020-02-13T18:33:57Z</time>
      </trkpt>
      <trkpt lat="56.906888754815" lon="14.814590579923">
        <ele>186.4</ele>
        <time>2020-02-13T18:34:04Z</time>
      </trkpt>
      <trkpt lat="56.906863944391" lon="14.814570882458">
        <ele>186.4</ele>
        <time>2020-02-13T18:34:06Z</time>
      </trkpt>
      <trkpt lat="56.906848437876" lon="14.814511957701">
        <ele>186.4</ele>
        <time>2020-02-13T18:34:09Z</time>
      </trkpt>
      <trkpt lat="56.906768809826" lon="14.81436200551">
        <ele>187.4</ele>
        <time>2020-02-13T18:34:14Z</time>
      </trkpt>
      <trkpt lat="56.906726062136" lon="14.814284472935">
        <ele>188.6</ele>
        <time>2020-02-13T18:34:17Z</time>
      </trkpt>
      <trkpt lat="56.906671495967" lon="14.814213226785">
        <ele>189.8</ele>
        <time>2020-02-13T18:34:20Z</time>
      </trkpt>
      <trkpt lat="56.90661424759" lon="14.814124881559">
        <ele>191.2</ele>
        <time>2020-02-13T18:34:23Z</time>
      </trkpt>
      <trkpt lat="56.906551634797" lon="14.813794969975">
        <ele>192</ele>
        <time>2020-02-13T18:34:31Z</time>
      </trkpt>
      <trkpt lat="56.906428588505" lon="14.813468411151">
        <ele>192</ele>
        <time>2020-02-13T18:34:38Z</time>
      </trkpt>
      <trkpt lat="56.906379638209" lon="14.813150904779">
        <ele>190.6</ele>
        <time>2020-02-13T18:34:44Z</time>
      </trkpt>
      <trkpt lat="56.906368993196" lon="14.812940854365">
        <ele>190</ele>
        <time>2020-02-13T18:34:49Z</time>
      </trkpt>
      <trkpt lat="56.906355833613" lon="14.812821747566">
        <ele>189</ele>
        <time>2020-02-13T18:34:53Z</time>
      </trkpt>
      <trkpt lat="56.906346110609" lon="14.812678417076">
        <ele>188.4</ele>
        <time>2020-02-13T18:34:57Z</time>
      </trkpt>
      <trkpt lat="56.906313756475" lon="14.812549503454">
        <ele>187.6</ele>
        <time>2020-02-13T18:35:01Z</time>
      </trkpt>
      <trkpt lat="56.906281150884" lon="14.812389157707">
        <ele>186.4</ele>
        <time>2020-02-13T18:35:06Z</time>
      </trkpt>
      <trkpt lat="56.906246952732" lon="14.812314139702">
        <ele>186</ele>
        <time>2020-02-13T18:35:08Z</time>
      </trkpt>
      <trkpt lat="56.90620856363" lon="14.812193188885">
        <ele>185.4</ele>
        <time>2020-02-13T18:35:12Z</time>
      </trkpt>
      <trkpt lat="56.906188027975" lon="14.812163600778">
        <ele>184.8</ele>
        <time>2020-02-13T18:35:15Z</time>
      </trkpt>
      <trkpt lat="56.906162546999" lon="14.812149016272">
        <ele>184.4</ele>
        <time>2020-02-13T18:35:18Z</time>
      </trkpt>
      <trkpt lat="56.906146705208" lon="14.81214415477">
        <ele>184.2</ele>
        <time>2020-02-13T18:35:19Z</time>
      </trkpt>
      <trkpt lat="56.906077554533" lon="14.812094869198">
        <ele>184.4</ele>
        <time>2020-02-13T18:35:23Z</time>
      </trkpt>
      <trkpt lat="56.906057605611" lon="14.812067292747">
        <ele>184</ele>
        <time>2020-02-13T18:35:24Z</time>
      </trkpt>
      <trkpt lat="56.906001614519" lon="14.811981210634">
        <ele>183.2</ele>
        <time>2020-02-13T18:35:27Z</time>
      </trkpt>
      <trkpt lat="56.905983341977" lon="14.811958244228">
        <ele>183</ele>
        <time>2020-02-13T18:35:28Z</time>
      </trkpt>
      <trkpt lat="56.905938331174" lon="14.811824133828">
        <ele>182.2</ele>
        <time>2020-02-13T18:35:32Z</time>
      </trkpt>
      <trkpt lat="56.905918298433" lon="14.811754815515">
        <ele>181.8</ele>
        <time>2020-02-13T18:35:34Z</time>
      </trkpt>
      <trkpt lat="56.905809417552" lon="14.811457760979">
        <ele>181.6</ele>
        <time>2020-02-13T18:35:43Z</time>
      </trkpt>
      <trkpt lat="56.905778823617" lon="14.811282579269">
        <ele>181.8</ele>
        <time>2020-02-13T18:35:48Z</time>
      </trkpt>
      <trkpt lat="56.905717216652" lon="14.810928024899">
        <ele>181.8</ele>
        <time>2020-02-13T18:35:57Z</time>
      </trkpt>
      <trkpt lat="56.905701291042" lon="14.810877984956">
        <ele>182</ele>
        <time>2020-02-13T18:35:59Z</time>
      </trkpt>
      <trkpt lat="56.905674468962" lon="14.810826939185">
        <ele>182</ele>
        <time>2020-02-13T18:36:02Z</time>
      </trkpt>
      <trkpt lat="56.905590314686" lon="14.81048286219">
        <ele>182.6</ele>
        <time>2020-02-13T18:36:14Z</time>
      </trkpt>
      <trkpt lat="56.905577574198" lon="14.810410274936">
        <ele>182.8</ele>
        <time>2020-02-13T18:36:16Z</time>
      </trkpt>
      <trkpt lat="56.905585872279" lon="14.810294437078">
        <ele>183.2</ele>
        <time>2020-02-13T18:36:19Z</time>
      </trkpt>
      <trkpt lat="56.90562685977" lon="14.810139371928">
        <ele>183.8</ele>
        <time>2020-02-13T18:36:24Z</time>
      </trkpt>
      <trkpt lat="56.905676145342" lon="14.810083632293">
        <ele>183.8</ele>
        <time>2020-02-13T18:36:27Z</time>
      </trkpt>
      <trkpt lat="56.905684527242" lon="14.810008195193">
        <ele>184.2</ele>
        <time>2020-02-13T18:36:31Z</time>
      </trkpt>
      <trkpt lat="56.905683689052" lon="14.809985396425">
        <ele>184.4</ele>
        <time>2020-02-13T18:36:32Z</time>
      </trkpt>
      <trkpt lat="56.905683186138" lon="14.80989864376">
        <ele>184.6</ele>
        <time>2020-02-13T18:36:34Z</time>
      </trkpt>
      <trkpt lat="56.905688718192" lon="14.809766964111">
        <ele>184.6</ele>
        <time>2020-02-13T18:36:38Z</time>
      </trkpt>
      <trkpt lat="56.905601965527" lon="14.8098030901">
        <ele>183.8</ele>
        <time>2020-02-13T18:37:03Z</time>
      </trkpt>
      <trkpt lat="56.905474141552" lon="14.809761599695">
        <ele>184.4</ele>
        <time>2020-02-13T18:37:11Z</time>
      </trkpt>
      <trkpt lat="56.90540809218" lon="14.809767969939">
        <ele>184.4</ele>
        <time>2020-02-13T18:37:14Z</time>
      </trkpt>
      <trkpt lat="56.905317232384" lon="14.809830582732">
        <ele>184.4</ele>
        <time>2020-02-13T18:37:18Z</time>
      </trkpt>
      <trkpt lat="56.90530248024" lon="14.809912138619">
        <ele>184</ele>
        <time>2020-02-13T18:37:21Z</time>
      </trkpt>
      <trkpt lat="56.90529577472" lon="14.809979361457">
        <ele>183.8</ele>
        <time>2020-02-13T18:37:23Z</time>
      </trkpt>
      <trkpt lat="56.905147331271" lon="14.810180191781">
        <ele>183.4</ele>
        <time>2020-02-13T18:37:31Z</time>
      </trkpt>
      <trkpt lat="56.904958570883" lon="14.810279098201">
        <ele>183.4</ele>
        <time>2020-02-13T18:37:37Z</time>
      </trkpt>
      <trkpt lat="56.904778108576" lon="14.810391667118">
        <ele>183.4</ele>
        <time>2020-02-13T18:37:43Z</time>
      </trkpt>
      <trkpt lat="56.904726056977" lon="14.81038479396">
        <ele>183.4</ele>
        <time>2020-02-13T18:37:45Z</time>
      </trkpt>
      <trkpt lat="56.904523298816" lon="14.810511025374">
        <ele>183.8</ele>
        <time>2020-02-13T18:37:51Z</time>
      </trkpt>
      <trkpt lat="56.904329676926" lon="14.810600041152">
        <ele>183</ele>
        <time>2020-02-13T18:37:56Z</time>
      </trkpt>
      <trkpt lat="56.904172013387" lon="14.810770696636">
        <ele>182.2</ele>
        <time>2020-02-13T18:38:03Z</time>
      </trkpt>
      <trkpt lat="56.9040820756" lon="14.810870776522">
        <ele>182</ele>
        <time>2020-02-13T18:38:08Z</time>
      </trkpt>
      <trkpt lat="56.903984594103" lon="14.8108759733">
        <ele>181.6</ele>
        <time>2020-02-13T18:38:13Z</time>
      </trkpt>
      <trkpt lat="56.903902200026" lon="14.8109765561">
        <ele>181.4</ele>
        <time>2020-02-13T18:38:17Z</time>
      </trkpt>
      <trkpt lat="56.90384402964" lon="14.810975550272">
        <ele>181</ele>
        <time>2020-02-13T18:38:20Z</time>
      </trkpt>
      <trkpt lat="56.90380882566" lon="14.810991475882">
        <ele>180.8</ele>
        <time>2020-02-13T18:38:23Z</time>
      </trkpt>
      <trkpt lat="56.903644037506" lon="14.811133213811">
        <ele>180.8</ele>
        <time>2020-02-13T18:38:30Z</time>
      </trkpt>
      <trkpt lat="56.90346516776" lon="14.811211584576">
        <ele>180.4</ele>
        <time>2020-02-13T18:38:39Z</time>
      </trkpt>
      <trkpt lat="56.903406075365" lon="14.811228683652">
        <ele>180.2</ele>
        <time>2020-02-13T18:38:42Z</time>
      </trkpt>
      <trkpt lat="56.903329548618" lon="14.811282076355">
        <ele>180.2</ele>
        <time>2020-02-13T18:38:45Z</time>
      </trkpt>
      <trkpt lat="56.903131316683" lon="14.81125902613">
        <ele>180.6</ele>
        <time>2020-02-13T18:38:54Z</time>
      </trkpt>
      <trkpt lat="56.903050096072" lon="14.811259445225">
        <ele>180.6</ele>
        <time>2020-02-13T18:38:58Z</time>
      </trkpt>
      <trkpt lat="56.903001816328" lon="14.811284674744">
        <ele>180.6</ele>
        <time>2020-02-13T18:39:02Z</time>
      </trkpt>
      <trkpt lat="56.903001061957" lon="14.811156347855">
        <ele>180.6</ele>
        <time>2020-02-13T18:39:12Z</time>
      </trkpt>
      <trkpt lat="56.903082366387" lon="14.810841272234">
        <ele>180.8</ele>
        <time>2020-02-13T18:39:21Z</time>
      </trkpt>
      <trkpt lat="56.903195019123" lon="14.81067145494">
        <ele>181</ele>
        <time>2020-02-13T18:39:27Z</time>
      </trkpt>
      <trkpt lat="56.903275569182" lon="14.810341962451">
        <ele>181</ele>
        <time>2020-02-13T18:39:34Z</time>
      </trkpt>
      <trkpt lat="56.903326950229" lon="14.80996653715">
        <ele>180.8</ele>
        <time>2020-02-13T18:39:41Z</time>
      </trkpt>
      <trkpt lat="56.903366931892" lon="14.809811136724">
        <ele>180.8</ele>
        <time>2020-02-13T18:39:45Z</time>
      </trkpt>
      <trkpt lat="56.903378666552" lon="14.809742321325">
        <ele>180.6</ele>
        <time>2020-02-13T18:39:47Z</time>
      </trkpt>
      <trkpt lat="56.903558709764" lon="14.809617263377">
        <ele>181</ele>
        <time>2020-02-13T18:39:55Z</time>
      </trkpt>
      <trkpt lat="56.903613275933" lon="14.809510058876">
        <ele>181</ele>
        <time>2020-02-13T18:39:58Z</time>
      </trkpt>
      <trkpt lat="56.90364118766" lon="14.809403441108">
        <ele>181.2</ele>
        <time>2020-02-13T18:40:01Z</time>
      </trkpt>
      <trkpt lat="56.903663064419" lon="14.809310988751">
        <ele>181.4</ele>
        <time>2020-02-13T18:40:04Z</time>
      </trkpt>
      <trkpt lat="56.903681253142" lon="14.809273186382">
        <ele>181.4</ele>
        <time>2020-02-13T18:40:06Z</time>
      </trkpt>
      <trkpt lat="56.903702543168" lon="14.809212417607">
        <ele>181.4</ele>
        <time>2020-02-13T18:40:08Z</time>
      </trkpt>
      <trkpt lat="56.903818716302" lon="14.808930282853">
        <ele>181.6</ele>
        <time>2020-02-13T18:40:15Z</time>
      </trkpt>
      <trkpt lat="56.903915024333" lon="14.808926930093">
        <ele>181.4</ele>
        <time>2020-02-13T18:40:21Z</time>
      </trkpt>
      <trkpt lat="56.90406363542" lon="14.808878482711">
        <ele>181.2</ele>
        <time>2020-02-13T18:40:29Z</time>
      </trkpt>
      <trkpt lat="56.904092552975" lon="14.808860042531">
        <ele>181.2</ele>
        <time>2020-02-13T18:40:31Z</time>
      </trkpt>
      <trkpt lat="56.90414158709" lon="14.808846966767">
        <ele>181.2</ele>
        <time>2020-02-13T18:40:35Z</time>
      </trkpt>
      <trkpt lat="56.904177713079" lon="14.808796843005">
        <ele>181</ele>
        <time>2020-02-13T18:40:37Z</time>
      </trkpt>
      <trkpt lat="56.90428994672" lon="14.808655524171">
        <ele>181.2</ele>
        <time>2020-02-13T18:40:44Z</time>
      </trkpt>
      <trkpt lat="56.904316265886" lon="14.808574890293">
        <ele>181.2</ele>
        <time>2020-02-13T18:40:47Z</time>
      </trkpt>
      <trkpt lat="56.904400336343" lon="14.80825579136">
        <ele>180.8</ele>
        <time>2020-02-13T18:40:56Z</time>
      </trkpt>
      <trkpt lat="56.904400001067" lon="14.80821807281">
        <ele>180.8</ele>
        <time>2020-02-13T18:40:58Z</time>
      </trkpt>
      <trkpt lat="56.904386925303" lon="14.808132745068">
        <ele>181</ele>
        <time>2020-02-13T18:41:01Z</time>
      </trkpt>
      <trkpt lat="56.904334035514" lon="14.808101732038">
        <ele>181.2</ele>
        <time>2020-02-13T18:41:06Z</time>
      </trkpt>
      <trkpt lat="56.904308638357" lon="14.808053703751">
        <ele>181.2</ele>
        <time>2020-02-13T18:41:08Z</time>
      </trkpt>
      <trkpt lat="56.904262454088" lon="14.807941721567">
        <ele>182</ele>
        <time>2020-02-13T18:41:12Z</time>
      </trkpt>
      <trkpt lat="56.904098923219" lon="14.807758996147">
        <ele>182</ele>
        <time>2020-02-13T18:41:24Z</time>
      </trkpt>
      <trkpt lat="56.904058773918" lon="14.807700490485">
        <ele>182.2</ele>
        <time>2020-02-13T18:41:27Z</time>
      </trkpt>
      <trkpt lat="56.904029185811" lon="14.807664196858">
        <ele>182.2</ele>
        <time>2020-02-13T18:41:30Z</time>
      </trkpt>
      <trkpt lat="56.90402256411" lon="14.807606445567">
        <ele>182.2</ele>
        <time>2020-02-13T18:41:32Z</time>
      </trkpt>
      <trkpt lat="56.904036980978" lon="14.807340823156">
        <ele>183</ele>
        <time>2020-02-13T18:41:41Z</time>
      </trkpt>
      <trkpt lat="56.904049050914" lon="14.807309139574">
        <ele>183.2</ele>
        <time>2020-02-13T18:41:43Z</time>
      </trkpt>
      <trkpt lat="56.904057935728" lon="14.80727091811">
        <ele>183</ele>
        <time>2020-02-13T18:41:45Z</time>
      </trkpt>
      <trkpt lat="56.904078052288" lon="14.807159103564">
        <ele>182.6</ele>
        <time>2020-02-13T18:41:52Z</time>
      </trkpt>
      <trkpt lat="56.904091714785" lon="14.807106213775">
        <ele>182.6</ele>
        <time>2020-02-13T18:41:55Z</time>
      </trkpt>
      <trkpt lat="56.904136725588" lon="14.807047037561">
        <ele>182.6</ele>
        <time>2020-02-13T18:41:57Z</time>
      </trkpt>
      <trkpt lat="56.90410219216" lon="14.806920806147">
        <ele>183</ele>
        <time>2020-02-13T18:42:06Z</time>
      </trkpt>
      <trkpt lat="56.904041674842" lon="14.806902701243">
        <ele>184.2</ele>
        <time>2020-02-13T18:42:10Z</time>
      </trkpt>
      <trkpt lat="56.904016612961" lon="14.806904796718">
        <ele>184.2</ele>
        <time>2020-02-13T18:42:12Z</time>
      </trkpt>
      <trkpt lat="56.903980738429" lon="14.806916866654">
        <ele>184</ele>
        <time>2020-02-13T18:42:14Z</time>
      </trkpt>
      <trkpt lat="56.903942181689" lon="14.806944778381">
        <ele>183.8</ele>
        <time>2020-02-13T18:42:18Z</time>
      </trkpt>
      <trkpt lat="56.903916784532" lon="14.806919967957">
        <ele>183.2</ele>
        <time>2020-02-13T18:42:22Z</time>
      </trkpt>
      <trkpt lat="56.90406950275" lon="14.806910412591">
        <ele>183.2</ele>
        <time>2020-02-13T18:42:37Z</time>
      </trkpt>
      <trkpt lat="56.904088362025" lon="14.80703203396">
        <ele>183.2</ele>
        <time>2020-02-13T18:42:40Z</time>
      </trkpt>
      <trkpt lat="56.903952072331" lon="14.807291789041">
        <ele>183</ele>
        <time>2020-02-13T18:42:47Z</time>
      </trkpt>
      <trkpt lat="56.903917455084" lon="14.807323221166">
        <ele>183.2</ele>
        <time>2020-02-13T18:42:49Z</time>
      </trkpt>
      <trkpt lat="56.903758031346" lon="14.807162204867">
        <ele>184.2</ele>
        <time>2020-02-13T18:43:00Z</time>
      </trkpt>
      <trkpt lat="56.903567343121" lon="14.806987190795">
        <ele>184.8</ele>
        <time>2020-02-13T18:43:07Z</time>
      </trkpt>
      <trkpt lat="56.903534150797" lon="14.806970762271">
        <ele>184.8</ele>
        <time>2020-02-13T18:43:08Z</time>
      </trkpt>
      <trkpt lat="56.903453768376" lon="14.806916782835">
        <ele>185</ele>
        <time>2020-02-13T18:43:12Z</time>
      </trkpt>
      <trkpt lat="56.903404650442" lon="14.806905299632">
        <ele>185</ele>
        <time>2020-02-13T18:43:14Z</time>
      </trkpt>
      <trkpt lat="56.903377660724" lon="14.80689792356">
        <ele>185.4</ele>
        <time>2020-02-13T18:43:15Z</time>
      </trkpt>
      <trkpt lat="56.903337176147" lon="14.806893564972">
        <ele>185.6</ele>
        <time>2020-02-13T18:43:17Z</time>
      </trkpt>
      <trkpt lat="56.903282526159" lon="14.806851906929">
        <ele>186.4</ele>
        <time>2020-02-13T18:43:20Z</time>
      </trkpt>
      <trkpt lat="56.903255368803" lon="14.806798262769">
        <ele>186.2</ele>
        <time>2020-02-13T18:43:22Z</time>
      </trkpt>
      <trkpt lat="56.903169957242" lon="14.806596761893">
        <ele>185.8</ele>
        <time>2020-02-13T18:43:27Z</time>
      </trkpt>
      <trkpt lat="56.903108769372" lon="14.806526270114">
        <ele>186.2</ele>
        <time>2020-02-13T18:43:31Z</time>
      </trkpt>
      <trkpt lat="56.90304188181" lon="14.806441026191">
        <ele>186.8</ele>
        <time>2020-02-13T18:43:34Z</time>
      </trkpt>
      <trkpt lat="56.902974491334" lon="14.806338599373">
        <ele>186.4</ele>
        <time>2020-02-13T18:43:38Z</time>
      </trkpt>
      <trkpt lat="56.902881536063" lon="14.806196274711">
        <ele>187.6</ele>
        <time>2020-02-13T18:43:44Z</time>
      </trkpt>
      <trkpt lat="56.902831244663" lon="14.806142462913">
        <ele>187.4</ele>
        <time>2020-02-13T18:43:47Z</time>
      </trkpt>
      <trkpt lat="56.902730661863" lon="14.805992007808">
        <ele>186.8</ele>
        <time>2020-02-13T18:43:54Z</time>
      </trkpt>
      <trkpt lat="56.902622200077" lon="14.805702245525">
        <ele>187</ele>
        <time>2020-02-13T18:44:02Z</time>
      </trkpt>
      <trkpt lat="56.90255489342" lon="14.805538966113">
        <ele>186.6</ele>
        <time>2020-02-13T18:44:07Z</time>
      </trkpt>
      <trkpt lat="56.902537878163" lon="14.805396389994">
        <ele>186.4</ele>
        <time>2020-02-13T18:44:11Z</time>
      </trkpt>
      <trkpt lat="56.902495214292" lon="14.805053654103">
        <ele>186.6</ele>
        <time>2020-02-13T18:44:19Z</time>
      </trkpt>
      <trkpt lat="56.902465542366" lon="14.804715528257">
        <ele>186.8</ele>
        <time>2020-02-13T18:44:25Z</time>
      </trkpt>
      <trkpt lat="56.902450706403" lon="14.804397518971">
        <ele>186.6</ele>
        <time>2020-02-13T18:44:30Z</time>
      </trkpt>
      <trkpt lat="56.902408126351" lon="14.804188809661">
        <ele>185.2</ele>
        <time>2020-02-13T18:44:33Z</time>
      </trkpt>
      <trkpt lat="56.902321122229" lon="14.80388965965">
        <ele>186.2</ele>
        <time>2020-02-13T18:44:39Z</time>
      </trkpt>
      <trkpt lat="56.902297149995" lon="14.80384104463">
        <ele>186.8</ele>
        <time>2020-02-13T18:44:40Z</time>
      </trkpt>
      <trkpt lat="56.90222297018" lon="14.803716238139">
        <ele>187.8</ele>
        <time>2020-02-13T18:44:43Z</time>
      </trkpt>
      <trkpt lat="56.902014847603" lon="14.803698636149">
        <ele>188</ele>
        <time>2020-02-13T18:44:49Z</time>
      </trkpt>
      <trkpt lat="56.901895824623" lon="14.803740210373">
        <ele>189.2</ele>
        <time>2020-02-13T18:44:52Z</time>
      </trkpt>
      <trkpt lat="56.901821141894" lon="14.803752531766">
        <ele>190.2</ele>
        <time>2020-02-13T18:44:54Z</time>
      </trkpt>
      <trkpt lat="56.901611510575" lon="14.803802655528">
        <ele>190.6</ele>
        <time>2020-02-13T18:44:59Z</time>
      </trkpt>
      <trkpt lat="56.901409171509" lon="14.803830567255">
        <ele>189.6</ele>
        <time>2020-02-13T18:45:05Z</time>
      </trkpt>
      <trkpt lat="56.901202557674" lon="14.80386199938">
        <ele>189.6</ele>
        <time>2020-02-13T18:45:11Z</time>
      </trkpt>
      <trkpt lat="56.901016563313" lon="14.803890665478">
        <ele>189.4</ele>
        <time>2020-02-13T18:45:16Z</time>
      </trkpt>
      <trkpt lat="56.900971301053" lon="14.803900807577">
        <ele>189.4</ele>
        <time>2020-02-13T18:45:18Z</time>
      </trkpt>
      <trkpt lat="56.900828641115" lon="14.803656978106">
        <ele>189.6</ele>
        <time>2020-02-13T18:45:24Z</time>
      </trkpt>
      <trkpt lat="56.900784217045" lon="14.803608698362">
        <ele>189.2</ele>
        <time>2020-02-13T18:45:26Z</time>
      </trkpt>
      <trkpt lat="56.900757562603" lon="14.803600232643">
        <ele>189.2</ele>
        <time>2020-02-13T18:45:27Z</time>
      </trkpt>
      <trkpt lat="56.900692854335" lon="14.803533093624">
        <ele>188</ele>
        <time>2020-02-13T18:45:30Z</time>
      </trkpt>
      <trkpt lat="56.900626972601" lon="14.803539715325">
        <ele>186.8</ele>
        <time>2020-02-13T18:45:33Z</time>
      </trkpt>
      <trkpt lat="56.900435278548" lon="14.80361473333">
        <ele>186.8</ele>
        <time>2020-02-13T18:45:41Z</time>
      </trkpt>
      <trkpt lat="56.900406528631" lon="14.80358791125">
        <ele>187</ele>
        <time>2020-02-13T18:45:42Z</time>
      </trkpt>
      <trkpt lat="56.900267975824" lon="14.803427984598">
        <ele>186.2</ele>
        <time>2020-02-13T18:45:46Z</time>
      </trkpt>
      <trkpt lat="56.900166303377" lon="14.8033490271">
        <ele>186</ele>
        <time>2020-02-13T18:45:49Z</time>
      </trkpt>
      <trkpt lat="56.900155574545" lon="14.803392529161">
        <ele>185.8</ele>
        <time>2020-02-13T18:45:50Z</time>
      </trkpt>
      <trkpt lat="56.900135457985" lon="14.803723781849">
        <ele>186.8</ele>
        <time>2020-02-13T18:45:56Z</time>
      </trkpt>
      <trkpt lat="56.900132021406" lon="14.803797039655">
        <ele>187</ele>
        <time>2020-02-13T18:45:57Z</time>
      </trkpt>
      <trkpt lat="56.900075108305" lon="14.804119742805">
        <ele>187.2</ele>
        <time>2020-02-13T18:46:02Z</time>
      </trkpt>
      <trkpt lat="56.900011573503" lon="14.804442110679">
        <ele>187.2</ele>
        <time>2020-02-13T18:46:09Z</time>
      </trkpt>
      <trkpt lat="56.899993971513" lon="14.804608407575">
        <ele>188</ele>
        <time>2020-02-13T18:46:13Z</time>
      </trkpt>
      <trkpt lat="56.899841337114" lon="14.804861457136">
        <ele>187.2</ele>
        <time>2020-02-13T18:46:21Z</time>
      </trkpt>
      <trkpt lat="56.899809150618" lon="14.804941755738">
        <ele>187</ele>
        <time>2020-02-13T18:46:23Z</time>
      </trkpt>
      <trkpt lat="56.899748130386" lon="14.805254316789">
        <ele>186</ele>
        <time>2020-02-13T18:46:30Z</time>
      </trkpt>
      <trkpt lat="56.899638159858" lon="14.805548772936">
        <ele>184.8</ele>
        <time>2020-02-13T18:46:36Z</time>
      </trkpt>
      <trkpt lat="56.899498349766" lon="14.805778688453">
        <ele>184</ele>
        <time>2020-02-13T18:46:42Z</time>
      </trkpt>
      <trkpt lat="56.899451830221" lon="14.805824705084">
        <ele>183.8</ele>
        <time>2020-02-13T18:46:44Z</time>
      </trkpt>
      <trkpt lat="56.899333561612" lon="14.805866782222">
        <ele>183.8</ele>
        <time>2020-02-13T18:46:49Z</time>
      </trkpt>
      <trkpt lat="56.899285617144" lon="14.805823699256">
        <ele>183.8</ele>
        <time>2020-02-13T18:46:52Z</time>
      </trkpt>
      <trkpt lat="56.89922644093" lon="14.805792853864">
        <ele>183</ele>
        <time>2020-02-13T18:46:58Z</time>
      </trkpt>
      <trkpt lat="56.899120493714" lon="14.805763684852">
        <ele>182.6</ele>
        <time>2020-02-13T18:47:03Z</time>
      </trkpt>
      <trkpt lat="56.899081098784" lon="14.805752536925">
        <ele>182.6</ele>
        <time>2020-02-13T18:47:05Z</time>
      </trkpt>
      <trkpt lat="56.898916059173" lon="14.805703335172">
        <ele>182.6</ele>
        <time>2020-02-13T18:47:14Z</time>
      </trkpt>
      <trkpt lat="56.898854033113" lon="14.805707945217">
        <ele>183.2</ele>
        <time>2020-02-13T18:47:18Z</time>
      </trkpt>
      <trkpt lat="56.898759820557" lon="14.805656061256">
        <ele>182.6</ele>
        <time>2020-02-13T18:47:25Z</time>
      </trkpt>
      <trkpt lat="56.898656220273" lon="14.805714986013">
        <ele>182.4</ele>
        <time>2020-02-13T18:47:30Z</time>
      </trkpt>
      <trkpt lat="56.89863803155" lon="14.805765361232">
        <ele>182.4</ele>
        <time>2020-02-13T18:47:32Z</time>
      </trkpt>
      <trkpt lat="56.898619423732" lon="14.80583928959">
        <ele>182.8</ele>
        <time>2020-02-13T18:47:35Z</time>
      </trkpt>
      <trkpt lat="56.898611628565" lon="14.805896035053">
        <ele>183</ele>
        <time>2020-02-13T18:47:37Z</time>
      </trkpt>
      <trkpt lat="56.898603162846" lon="14.805968035574">
        <ele>183.2</ele>
        <time>2020-02-13T18:47:40Z</time>
      </trkpt>
      <trkpt lat="56.898594780946" lon="14.806053698592">
        <ele>182.8</ele>
        <time>2020-02-13T18:47:45Z</time>
      </trkpt>
      <trkpt lat="56.8986170768" lon="14.806173224486">
        <ele>183</ele>
        <time>2020-02-13T18:47:49Z</time>
      </trkpt>
      <trkpt lat="56.898621435388" lon="14.806236256374">
        <ele>183.6</ele>
        <time>2020-02-13T18:47:51Z</time>
      </trkpt>
      <trkpt lat="56.898637444817" lon="14.806297947158">
        <ele>184.6</ele>
        <time>2020-02-13T18:47:53Z</time>
      </trkpt>
      <trkpt lat="56.898646916364" lon="14.806315884424">
        <ele>184.8</ele>
        <time>2020-02-13T18:47:54Z</time>
      </trkpt>
      <trkpt lat="56.898735177771" lon="14.806494586532">
        <ele>184.6</ele>
        <time>2020-02-13T18:48:01Z</time>
      </trkpt>
      <trkpt lat="56.89870424856" lon="14.806480840216">
        <ele>184.4</ele>
        <time>2020-02-13T18:48:10Z</time>
      </trkpt>
      <trkpt lat="56.898521942235" lon="14.806457538534">
        <ele>184.6</ele>
        <time>2020-02-13T18:48:16Z</time>
      </trkpt>
      <trkpt lat="56.898371068035" lon="14.806372210792">
        <ele>183.6</ele>
        <time>2020-02-13T18:48:21Z</time>
      </trkpt>
      <trkpt lat="56.898207956261" lon="14.806183618042">
        <ele>183.2</ele>
        <time>2020-02-13T18:48:26Z</time>
      </trkpt>
      <trkpt lat="56.898025733755" lon="14.806036599516">
        <ele>183.2</ele>
        <time>2020-02-13T18:48:31Z</time>
      </trkpt>
      <trkpt lat="56.897989859223" lon="14.806002904278">
        <ele>182.6</ele>
        <time>2020-02-13T18:48:32Z</time>
      </trkpt>
      <trkpt lat="56.897831022218" lon="14.805949763032">
        <ele>181.4</ele>
        <time>2020-02-13T18:48:36Z</time>
      </trkpt>
      <trkpt lat="56.897623737831" lon="14.805929646472">
        <ele>182.2</ele>
        <time>2020-02-13T18:48:41Z</time>
      </trkpt>
      <trkpt lat="56.897547294903" lon="14.805849934603">
        <ele>182.6</ele>
        <time>2020-02-13T18:48:43Z</time>
      </trkpt>
      <trkpt lat="56.897522149203" lon="14.805786567439">
        <ele>182.4</ele>
        <time>2020-02-13T18:48:44Z</time>
      </trkpt>
      <trkpt lat="56.897505133946" lon="14.805647427899">
        <ele>181.4</ele>
        <time>2020-02-13T18:48:47Z</time>
      </trkpt>
      <trkpt lat="56.897542098125" lon="14.805602165639">
        <ele>180.6</ele>
        <time>2020-02-13T18:48:49Z</time>
      </trkpt>
      <trkpt lat="56.897591886611" lon="14.805582887269">
        <ele>180.4</ele>
        <time>2020-02-13T18:48:51Z</time>
      </trkpt>
      <trkpt lat="56.89776463757" lon="14.805458080778">
        <ele>181.6</ele>
        <time>2020-02-13T18:48:57Z</time>
      </trkpt>
      <trkpt lat="56.897828842924" lon="14.805453554552">
        <ele>182</ele>
        <time>2020-02-13T18:49:00Z</time>
      </trkpt>
      <trkpt lat="56.897882067989" lon="14.805479454623">
        <ele>182.6</ele>
        <time>2020-02-13T18:49:02Z</time>
      </trkpt>
      <trkpt lat="56.897910398811" lon="14.805479119347">
        <ele>183</ele>
        <time>2020-02-13T18:49:03Z</time>
      </trkpt>
      <trkpt lat="56.897969239749" lon="14.805439556779">
        <ele>184.2</ele>
        <time>2020-02-13T18:49:05Z</time>
      </trkpt>
      <trkpt lat="56.898087173082" lon="14.80537325595">
        <ele>182.8</ele>
        <time>2020-02-13T18:49:09Z</time>
      </trkpt>
      <trkpt lat="56.898253805254" lon="14.805192290729">
        <ele>183.8</ele>
        <time>2020-02-13T18:49:15Z</time>
      </trkpt>
      <trkpt lat="56.898393028613" lon="14.805035130104">
        <ele>183.2</ele>
        <time>2020-02-13T18:49:21Z</time>
      </trkpt>
      <trkpt lat="56.89851481762" lon="14.804783673104">
        <ele>183.6</ele>
        <time>2020-02-13T18:49:27Z</time>
      </trkpt>
      <trkpt lat="56.898548680496" lon="14.804771938444">
        <ele>183.8</ele>
        <time>2020-02-13T18:49:29Z</time>
      </trkpt>
      <trkpt lat="56.898569467608" lon="14.80476221544">
        <ele>183.8</ele>
        <time>2020-02-13T18:49:31Z</time>
      </trkpt>
      <trkpt lat="56.898764933516" lon="14.804848381372">
        <ele>183.4</ele>
        <time>2020-02-13T18:49:38Z</time>
      </trkpt>
      <trkpt lat="56.89888865036" lon="14.805064634392">
        <ele>184.6</ele>
        <time>2020-02-13T18:49:44Z</time>
      </trkpt>
      <trkpt lat="56.898914550431" lon="14.805166390658">
        <ele>184.2</ele>
        <time>2020-02-13T18:49:46Z</time>
      </trkpt>
      <trkpt lat="56.899032483764" lon="14.805463864289">
        <ele>183.6</ele>
        <time>2020-02-13T18:49:55Z</time>
      </trkpt>
      <trkpt lat="56.89916776763" lon="14.805585485658">
        <ele>184</ele>
        <time>2020-02-13T18:50:03Z</time>
      </trkpt>
      <trkpt lat="56.89935887495" lon="14.805575092102">
        <ele>184.2</ele>
        <time>2020-02-13T18:50:10Z</time>
      </trkpt>
      <trkpt lat="56.899538582886" lon="14.805591604445">
        <ele>183.6</ele>
        <time>2020-02-13T18:50:16Z</time>
      </trkpt>
      <trkpt lat="56.899611253959" lon="14.80562136019">
        <ele>183.6</ele>
        <time>2020-02-13T18:50:20Z</time>
      </trkpt>
      <trkpt lat="56.899709992741" lon="14.805623455665">
        <ele>183.6</ele>
        <time>2020-02-13T18:50:31Z</time>
      </trkpt>
      <trkpt lat="56.899711250026" lon="14.805677435101">
        <ele>183.6</ele>
        <time>2020-02-13T18:50:33Z</time>
      </trkpt>
      <trkpt lat="56.899689792362" lon="14.805795452253">
        <ele>183.6</ele>
        <time>2020-02-13T18:50:36Z</time>
      </trkpt>
      <trkpt lat="56.899863632968" lon="14.805737952419">
        <ele>183.4</ele>
        <time>2020-02-13T18:50:42Z</time>
      </trkpt>
      <trkpt lat="56.900035964832" lon="14.805610128444">
        <ele>185.4</ele>
        <time>2020-02-13T18:50:47Z</time>
      </trkpt>
      <trkpt lat="56.900197735502" lon="14.805453303095">
        <ele>185.4</ele>
        <time>2020-02-13T18:50:52Z</time>
      </trkpt>
      <trkpt lat="56.90032195526" lon="14.805348277888">
        <ele>186.8</ele>
        <time>2020-02-13T18:50:56Z</time>
      </trkpt>
      <trkpt lat="56.900373168669" lon="14.805320869075">
        <ele>187.4</ele>
        <time>2020-02-13T18:50:58Z</time>
      </trkpt>
    </trkseg>
  </trk>
</gpx>